createdAt,value
2023-09-20T00:00:01.714Z,17.76
2023-09-20T00:01:01.837Z,17.77
2023-09-20T00:02:01.818Z,17.77
2023-09-20T00:03:01.694Z,17.76
2023-09-20T00:04:01.860Z,17.79
2023-09-20T00:05:01.754Z,17.79
2023-09-20T00:06:09.519Z,17.77
2023-09-20T00:07:09.714Z,17.77
2023-09-20T00:08:02.730Z,17.76
2023-09-20T00:09:01.727Z,17.74
2023-09-20T00:10:02.586Z,17.71
2023-09-20T00:11:01.551Z,17.73
2023-09-20T00:12:01.521Z,17.73
2023-09-20T00:13:01.584Z,17.70
2023-09-20T00:14:01.555Z,17.68
2023-09-20T00:15:01.532Z,17.68
2023-09-20T00:16:01.584Z,17.70
2023-09-20T00:17:01.562Z,17.68
2023-09-20T00:18:01.465Z,17.68
2023-09-20T00:19:01.466Z,17.68
2023-09-20T00:20:01.450Z,17.66
2023-09-20T00:21:01.432Z,17.66
2023-09-20T00:22:01.471Z,17.66
2023-09-20T00:23:01.433Z,17.66
2023-09-20T00:24:01.465Z,17.66
2023-09-20T00:25:01.368Z,17.65
2023-09-20T00:26:01.376Z,17.66
2023-09-20T00:27:01.330Z,17.65
2023-09-20T00:28:01.386Z,17.66
2023-09-20T00:29:01.372Z,17.68
2023-09-20T00:30:01.347Z,17.66
2023-09-20T00:31:01.344Z,17.63
2023-09-20T00:32:01.340Z,17.60
2023-09-20T00:33:01.355Z,17.63
2023-09-20T00:34:01.269Z,17.63
2023-09-20T00:35:01.325Z,17.63
2023-09-20T00:36:01.249Z,17.63
2023-09-20T00:37:01.222Z,17.60
2023-09-20T00:38:01.239Z,17.60
2023-09-20T00:39:01.169Z,17.60
2023-09-20T00:40:01.162Z,17.60
2023-09-20T00:41:08.761Z,17.62
2023-09-20T00:42:01.142Z,17.60
2023-09-20T00:43:01.114Z,17.60
2023-09-20T00:44:01.146Z,17.60
2023-09-20T00:45:01.103Z,17.58
2023-09-20T00:46:01.090Z,17.55
2023-09-20T00:47:01.097Z,17.57
2023-09-20T00:48:01.118Z,17.54
2023-09-20T00:49:01.081Z,17.54
2023-09-20T00:50:01.064Z,17.53
2023-09-20T00:51:01.019Z,17.53
2023-09-20T00:52:00.997Z,17.54
2023-09-20T00:53:01.021Z,17.53
2023-09-20T00:54:00.977Z,17.51
2023-09-20T00:55:00.988Z,17.51
2023-09-20T00:56:00.956Z,17.49
2023-09-20T00:57:00.941Z,17.49
2023-09-20T00:58:00.944Z,17.49
2023-09-20T00:59:00.950Z,17.47
2023-09-20T01:00:00.910Z,17.47
2023-09-20T01:01:00.924Z,17.46
2023-09-20T01:02:00.946Z,17.45
2023-09-20T01:03:00.950Z,17.47
2023-09-20T01:04:00.938Z,17.47
2023-09-20T01:05:00.897Z,17.46
2023-09-20T01:06:00.854Z,17.45
2023-09-20T01:07:00.847Z,17.46
2023-09-20T01:08:00.798Z,17.43
2023-09-20T01:09:00.776Z,17.45
2023-09-20T01:10:00.804Z,17.43
2023-09-20T01:11:00.862Z,17.43
2023-09-20T01:12:00.789Z,17.40
2023-09-20T01:13:00.724Z,17.40
2023-09-20T01:14:00.796Z,17.40
2023-09-20T01:15:00.732Z,17.40
2023-09-20T01:16:00.681Z,17.42
2023-09-20T01:17:00.792Z,17.40
2023-09-20T01:18:00.767Z,17.38
2023-09-20T01:19:00.647Z,17.38
2023-09-20T01:20:00.701Z,17.38
2023-09-20T01:21:00.664Z,17.40
2023-09-20T01:22:00.616Z,17.39
2023-09-20T01:23:00.664Z,17.40
2023-09-20T01:24:00.611Z,17.39
2023-09-20T01:25:00.585Z,17.39
2023-09-20T01:26:00.599Z,17.38
2023-09-20T01:27:00.569Z,17.35
2023-09-20T01:28:00.518Z,17.35
2023-09-20T01:29:00.570Z,17.32
2023-09-20T01:30:00.558Z,17.33
2023-09-20T01:31:00.576Z,17.33
2023-09-20T01:32:00.552Z,17.33
2023-09-20T01:33:00.521Z,17.32
2023-09-20T01:34:00.442Z,17.30
2023-09-20T01:35:00.477Z,17.28
2023-09-20T01:36:00.463Z,17.28
2023-09-20T01:37:00.414Z,17.28
2023-09-20T01:38:00.426Z,17.28
2023-09-20T01:39:00.403Z,17.28
2023-09-20T01:40:00.374Z,17.28
2023-09-20T01:41:00.386Z,17.30
2023-09-20T01:42:00.437Z,17.30
2023-09-20T01:43:00.336Z,17.30
2023-09-20T01:44:00.373Z,17.30
2023-09-20T01:45:00.313Z,17.30
2023-09-20T01:46:00.294Z,17.30
2023-09-20T01:47:00.406Z,17.30
2023-09-20T01:48:00.469Z,17.30
2023-09-20T01:49:00.381Z,17.30
2023-09-20T01:50:00.353Z,17.30
2023-09-20T01:51:00.247Z,17.32
2023-09-20T01:52:00.225Z,17.32
2023-09-20T01:53:00.235Z,17.32
2023-09-20T01:54:00.221Z,17.33
2023-09-20T01:55:00.187Z,17.33
2023-09-20T01:56:00.184Z,17.32
2023-09-20T01:57:00.184Z,17.32
2023-09-20T01:58:00.169Z,17.32
2023-09-20T01:59:00.155Z,17.32
2023-09-20T02:00:00.096Z,17.28
2023-09-20T02:01:00.179Z,17.28
2023-09-20T02:02:00.149Z,17.30
2023-09-20T02:03:00.117Z,17.28
2023-09-20T02:04:00.248Z,17.28
2023-09-20T02:05:00.118Z,17.28
2023-09-20T02:06:00.129Z,17.28
2023-09-20T02:07:00.040Z,17.28
2023-09-20T02:08:00.065Z,17.28
2023-09-20T02:09:00.025Z,17.27
2023-09-20T02:09:59.978Z,17.27
2023-09-20T02:10:59.991Z,17.28
2023-09-20T02:11:59.935Z,17.25
2023-09-20T02:12:59.937Z,17.28
2023-09-20T02:14:00.002Z,17.27
2023-09-20T02:14:59.908Z,17.25
2023-09-20T02:15:59.896Z,17.25
2023-09-20T02:16:59.952Z,17.24
2023-09-20T02:17:59.904Z,17.25
2023-09-20T02:18:59.858Z,17.24
2023-09-20T02:19:59.876Z,17.22
2023-09-20T02:20:59.850Z,17.24
2023-09-20T02:21:59.801Z,17.22
2023-09-20T02:22:59.892Z,17.22
2023-09-20T02:23:59.814Z,17.20
2023-09-20T02:24:59.785Z,17.18
2023-09-20T02:25:59.798Z,17.17
2023-09-20T02:26:59.756Z,17.15
2023-09-20T02:27:59.750Z,17.12
2023-09-20T02:28:59.723Z,17.10
2023-09-20T02:29:59.737Z,17.10
2023-09-20T02:30:59.760Z,17.09
2023-09-20T02:31:59.682Z,17.09
2023-09-20T02:32:59.706Z,17.09
2023-09-20T02:33:59.639Z,17.07
2023-09-20T02:34:59.698Z,17.05
2023-09-20T02:35:59.644Z,17.03
2023-09-20T02:36:59.625Z,17.03
2023-09-20T02:37:59.635Z,17.02
2023-09-20T02:38:59.620Z,17.02
2023-09-20T02:39:59.562Z,17.00
2023-09-20T02:40:59.701Z,16.99
2023-09-20T02:41:59.551Z,16.96
2023-09-20T02:42:59.541Z,16.96
2023-09-20T02:43:59.577Z,16.96
2023-09-20T02:44:59.526Z,16.95
2023-09-20T02:45:59.518Z,16.96
2023-09-20T02:46:59.538Z,16.96
2023-09-20T02:47:59.508Z,16.96
2023-09-20T02:48:59.472Z,16.96
2023-09-20T02:49:59.446Z,16.95
2023-09-20T02:50:59.425Z,16.95
2023-09-20T02:51:59.419Z,16.92
2023-09-20T02:52:59.434Z,16.92
2023-09-20T02:53:59.405Z,16.92
2023-09-20T02:54:59.415Z,16.90
2023-09-20T02:55:59.360Z,16.90
2023-09-20T02:56:59.373Z,16.90
2023-09-20T02:57:59.340Z,16.90
2023-09-20T02:58:59.347Z,16.90
2023-09-20T02:59:59.326Z,16.91
2023-09-20T03:00:59.290Z,16.91
2023-09-20T03:01:59.369Z,16.95
2023-09-20T03:02:59.444Z,16.96
2023-09-20T03:03:59.459Z,16.96
2023-09-20T03:04:59.283Z,16.98
2023-09-20T03:05:59.250Z,16.98
2023-09-20T03:06:59.221Z,16.99
2023-09-20T03:07:59.265Z,17.00
2023-09-20T03:08:59.202Z,17.02
2023-09-20T03:09:59.182Z,17.02
2023-09-20T03:10:59.212Z,17.02
2023-09-20T03:11:59.182Z,17.02
2023-09-20T03:12:59.444Z,17.02
2023-09-20T03:13:59.178Z,17.00
2023-09-20T03:14:59.116Z,17.00
2023-09-20T03:15:59.169Z,16.99
2023-09-20T03:16:59.135Z,16.99
2023-09-20T03:17:59.166Z,17.00
2023-09-20T03:18:59.080Z,17.00
2023-09-20T03:19:59.166Z,17.02
2023-09-20T03:20:59.172Z,17.02
2023-09-20T03:21:59.068Z,17.02
2023-09-20T03:22:59.104Z,17.02
2023-09-20T03:23:59.015Z,17.00
2023-09-20T03:24:59.052Z,17.00
2023-09-20T03:25:59.003Z,17.00
2023-09-20T03:26:58.968Z,16.99
2023-09-20T03:27:58.983Z,16.98
2023-09-20T03:28:58.980Z,16.96
2023-09-20T03:29:58.957Z,16.91
2023-09-20T03:30:58.934Z,16.91
2023-09-20T03:31:58.990Z,16.91
2023-09-20T03:32:58.923Z,16.90
2023-09-20T03:33:58.892Z,16.88
2023-09-20T03:34:58.928Z,16.88
2023-09-20T03:35:58.831Z,16.87
2023-09-20T03:36:58.846Z,16.85
2023-09-20T03:37:58.909Z,16.85
2023-09-20T03:38:58.819Z,16.84
2023-09-20T03:39:58.819Z,16.85
2023-09-20T03:40:58.805Z,16.85
2023-09-20T03:41:58.802Z,16.87
2023-09-20T03:42:58.736Z,16.87
2023-09-20T03:43:58.754Z,16.90
2023-09-20T03:44:58.750Z,16.87
2023-09-20T03:45:58.763Z,16.88
2023-09-20T03:46:58.880Z,16.87
2023-09-20T03:47:58.763Z,16.85
2023-09-20T03:48:58.699Z,16.85
2023-09-20T03:49:58.690Z,16.84
2023-09-20T03:50:58.716Z,16.84
2023-09-20T03:51:58.623Z,16.84
2023-09-20T03:52:58.689Z,16.81
2023-09-20T03:53:58.628Z,16.82
2023-09-20T03:54:58.611Z,16.84
2023-09-20T03:55:58.714Z,16.82
2023-09-20T03:56:58.575Z,16.81
2023-09-20T03:57:58.542Z,16.80
2023-09-20T03:58:58.688Z,16.78
2023-09-20T03:59:58.540Z,16.75
2023-09-20T04:00:58.636Z,16.73
2023-09-20T04:01:58.531Z,16.73
2023-09-20T04:02:58.611Z,16.73
2023-09-20T04:03:58.550Z,16.72
2023-09-20T04:04:58.524Z,16.72
2023-09-20T04:05:58.573Z,16.72
2023-09-20T04:06:58.466Z,16.69
2023-09-20T04:07:58.448Z,16.67
2023-09-20T04:08:58.409Z,16.69
2023-09-20T04:09:58.410Z,16.69
2023-09-20T04:10:58.439Z,16.67
2023-09-20T04:11:58.378Z,16.67
2023-09-20T04:12:58.349Z,16.67
2023-09-20T04:13:58.384Z,16.66
2023-09-20T04:14:58.351Z,16.66
2023-09-20T04:15:58.385Z,16.67
2023-09-20T04:16:58.437Z,16.66
2023-09-20T04:17:58.374Z,16.66
2023-09-20T04:18:58.296Z,16.66
2023-09-20T04:19:58.296Z,16.66
2023-09-20T04:20:58.258Z,16.65
2023-09-20T04:21:58.253Z,16.65
2023-09-20T04:22:58.245Z,16.65
2023-09-20T04:23:58.211Z,16.65
2023-09-20T04:24:58.219Z,16.66
2023-09-20T04:25:58.213Z,16.67
2023-09-20T04:26:58.244Z,16.65
2023-09-20T04:27:58.171Z,16.66
2023-09-20T04:28:58.168Z,16.66
2023-09-20T04:29:58.138Z,16.67
2023-09-20T04:30:58.126Z,16.67
2023-09-20T04:31:58.131Z,16.69
2023-09-20T04:32:58.152Z,16.69
2023-09-20T04:33:58.078Z,16.67
2023-09-20T04:34:58.096Z,16.66
2023-09-20T04:35:58.053Z,16.67
2023-09-20T04:36:58.057Z,16.66
2023-09-20T04:37:58.023Z,16.67
2023-09-20T04:38:58.041Z,16.65
2023-09-20T04:39:57.996Z,16.65
2023-09-20T04:40:58.122Z,16.65
2023-09-20T04:41:58.016Z,16.63
2023-09-20T04:42:58.022Z,16.65
2023-09-20T04:43:57.961Z,16.65
2023-09-20T04:44:57.941Z,16.65
2023-09-20T04:45:57.993Z,16.66
2023-09-20T04:46:57.955Z,16.65
2023-09-20T04:47:58.002Z,16.65
2023-09-20T04:48:57.910Z,16.66
2023-09-20T04:49:57.867Z,16.63
2023-09-20T04:50:57.867Z,16.65
2023-09-20T04:51:57.871Z,16.63
2023-09-20T04:52:57.847Z,16.63
2023-09-20T04:53:57.818Z,16.63
2023-09-20T04:54:57.819Z,16.63
2023-09-20T04:55:57.828Z,16.63
2023-09-20T04:56:57.845Z,16.63
2023-09-20T04:57:57.815Z,16.62
2023-09-20T04:58:57.773Z,16.62
2023-09-20T04:59:57.750Z,16.63
2023-09-20T05:00:57.772Z,16.65
2023-09-20T05:01:57.732Z,16.65
2023-09-20T05:02:57.951Z,16.65
2023-09-20T05:03:57.822Z,16.62
2023-09-20T05:04:57.677Z,16.62
2023-09-20T05:05:57.674Z,16.63
2023-09-20T05:06:57.693Z,16.63
2023-09-20T05:07:57.659Z,16.62
2023-09-20T05:08:57.667Z,16.63
2023-09-20T05:09:57.622Z,16.62
2023-09-20T05:10:57.600Z,16.62
2023-09-20T05:11:57.672Z,16.60
2023-09-20T05:12:57.600Z,16.62
2023-09-20T05:13:57.579Z,16.62
2023-09-20T05:14:57.595Z,16.62
2023-09-20T05:15:57.634Z,16.60
2023-09-20T05:16:57.540Z,16.60
2023-09-20T05:17:57.771Z,16.59
2023-09-20T05:18:57.510Z,16.59
2023-09-20T05:19:57.487Z,16.60
2023-09-20T05:20:57.464Z,16.59
2023-09-20T05:21:57.466Z,16.57
2023-09-20T05:22:57.524Z,16.55
2023-09-20T05:23:57.434Z,16.54
2023-09-20T05:24:57.429Z,16.54
2023-09-20T05:25:57.425Z,16.52
2023-09-20T05:26:57.432Z,16.54
2023-09-20T05:27:57.384Z,16.54
2023-09-20T05:28:57.384Z,16.54
2023-09-20T05:29:57.357Z,16.54
2023-09-20T05:30:57.387Z,16.52
2023-09-20T05:31:57.428Z,16.52
2023-09-20T05:32:57.377Z,16.51
2023-09-20T05:33:57.305Z,16.51
2023-09-20T05:34:57.300Z,16.51
2023-09-20T05:35:57.284Z,16.51
2023-09-20T05:36:57.287Z,16.50
2023-09-20T05:37:57.289Z,16.48
2023-09-20T05:38:57.233Z,16.48
2023-09-20T05:39:57.277Z,16.50
2023-09-20T05:40:57.238Z,16.51
2023-09-20T05:41:57.210Z,16.50
2023-09-20T05:42:57.190Z,16.50
2023-09-20T05:43:57.206Z,16.50
2023-09-20T05:44:57.195Z,16.51
2023-09-20T05:45:57.158Z,16.51
2023-09-20T05:46:57.219Z,16.51
2023-09-20T05:47:57.281Z,16.52
2023-09-20T05:48:57.149Z,16.51
2023-09-20T05:49:57.107Z,16.52
2023-09-20T05:50:57.086Z,16.54
2023-09-20T05:51:57.081Z,16.54
2023-09-20T05:52:57.152Z,16.52
2023-09-20T05:53:57.044Z,16.57
2023-09-20T05:54:57.081Z,16.55
2023-09-20T05:55:57.026Z,16.55
2023-09-20T05:56:57.020Z,16.57
2023-09-20T05:57:56.986Z,16.59
2023-09-20T05:58:56.968Z,16.59
2023-09-20T05:59:59.283Z,16.59
2023-09-20T06:00:56.992Z,16.60
2023-09-20T06:01:57.033Z,16.63
2023-09-20T06:02:57.068Z,16.63
2023-09-20T06:03:56.989Z,16.62
2023-09-20T06:04:56.893Z,16.63
2023-09-20T06:05:56.892Z,16.66
2023-09-20T06:06:56.882Z,16.66
2023-09-20T06:07:56.853Z,16.66
2023-09-20T06:08:56.845Z,16.66
2023-09-20T06:09:56.831Z,16.67
2023-09-20T06:10:56.830Z,16.67
2023-09-20T06:11:56.810Z,16.69
2023-09-20T06:12:56.787Z,16.69
2023-09-20T06:13:56.783Z,16.70
2023-09-20T06:14:56.784Z,16.73
2023-09-20T06:15:56.756Z,16.73
2023-09-20T06:16:56.795Z,16.75
2023-09-20T06:17:56.853Z,16.75
2023-09-20T06:19:06.040Z,16.77
2023-09-20T06:19:57.725Z,16.78
2023-09-20T06:20:56.694Z,16.78
2023-09-20T06:21:56.717Z,16.80
2023-09-20T06:22:56.652Z,16.81
2023-09-20T06:23:56.662Z,16.81
2023-09-20T06:24:56.635Z,16.85
2023-09-20T06:25:56.618Z,16.87
2023-09-20T06:26:56.626Z,16.85
2023-09-20T06:27:56.596Z,16.87
2023-09-20T06:28:56.596Z,16.90
2023-09-20T06:29:56.583Z,16.90
2023-09-20T06:30:56.611Z,16.90
2023-09-20T06:31:56.553Z,16.91
2023-09-20T06:32:56.641Z,16.91
2023-09-20T06:33:56.542Z,16.91
2023-09-20T06:34:59.386Z,16.91
2023-09-20T06:35:56.801Z,16.92
2023-09-20T06:36:56.589Z,16.95
2023-09-20T06:37:56.464Z,16.96
2023-09-20T06:38:56.460Z,16.99
2023-09-20T06:39:56.445Z,17.00
2023-09-20T06:40:56.434Z,17.02
2023-09-20T06:42:04.584Z,17.03
2023-09-20T06:42:56.471Z,17.07
2023-09-20T06:43:56.417Z,17.09
2023-09-20T06:44:56.449Z,17.09
2023-09-20T06:45:56.384Z,17.12
2023-09-20T06:46:56.365Z,17.14
2023-09-20T06:47:56.445Z,17.14
2023-09-20T06:48:56.355Z,17.17
2023-09-20T06:49:56.323Z,17.17
2023-09-20T06:50:56.293Z,17.20
2023-09-20T06:51:56.291Z,17.20
2023-09-20T06:52:56.310Z,17.22
2023-09-20T06:53:56.441Z,17.22
2023-09-20T06:54:56.264Z,17.22
2023-09-20T06:55:56.341Z,17.24
2023-09-20T06:56:56.263Z,17.25
2023-09-20T06:58:05.186Z,17.27
2023-09-20T06:58:57.217Z,17.28
2023-09-20T06:59:56.188Z,17.30
2023-09-20T07:00:56.246Z,17.30
2023-09-20T07:01:56.209Z,17.33
2023-09-20T07:02:56.284Z,17.35
2023-09-20T07:03:56.224Z,17.36
2023-09-20T07:04:56.122Z,17.40
2023-09-20T07:05:56.146Z,17.39
2023-09-20T07:06:56.166Z,17.39
2023-09-20T07:07:56.149Z,17.40
2023-09-20T07:08:56.079Z,17.42
2023-09-20T07:09:56.080Z,17.43
2023-09-20T07:10:56.042Z,17.45
2023-09-20T07:11:56.234Z,17.45
2023-09-20T07:12:56.075Z,17.46
2023-09-20T07:13:57.093Z,17.51
2023-09-20T07:14:56.166Z,17.53
2023-09-20T07:15:56.078Z,17.54
2023-09-20T07:16:56.133Z,17.57
2023-09-20T07:17:56.027Z,17.60
2023-09-20T07:18:56.028Z,17.62
2023-09-20T07:19:55.932Z,17.62
2023-09-20T07:20:56.199Z,17.65
2023-09-20T07:21:55.928Z,17.66
2023-09-20T07:22:55.961Z,17.68
2023-09-20T07:23:55.884Z,17.71
2023-09-20T07:24:55.924Z,17.73
2023-09-20T07:25:55.894Z,17.74
2023-09-20T07:26:55.838Z,17.76
2023-09-20T07:27:55.814Z,17.76
2023-09-20T07:28:55.866Z,17.73
2023-09-20T07:29:56.251Z,17.73
2023-09-20T07:30:55.905Z,17.74
2023-09-20T07:31:55.800Z,17.79
2023-09-20T07:33:10.365Z,17.77
2023-09-20T07:33:56.935Z,17.79
2023-09-20T07:34:55.745Z,17.80
2023-09-20T07:35:55.728Z,17.80
2023-09-20T07:36:55.718Z,17.83
2023-09-20T07:37:55.821Z,17.81
2023-09-20T07:38:55.848Z,17.81
2023-09-20T07:39:55.689Z,17.84
2023-09-20T07:40:55.663Z,17.83
2023-09-20T07:41:55.664Z,17.84
2023-09-20T07:42:55.696Z,17.87
2023-09-20T07:43:55.623Z,17.87
2023-09-20T07:44:55.649Z,17.86
2023-09-20T07:45:55.831Z,17.87
2023-09-20T07:46:55.582Z,17.89
2023-09-20T07:47:55.642Z,17.91
2023-09-20T07:48:55.567Z,17.91
2023-09-20T07:49:55.565Z,17.91
2023-09-20T07:50:56.643Z,17.92
2023-09-20T07:51:55.751Z,17.92
2023-09-20T07:52:55.656Z,17.92
2023-09-20T07:53:55.865Z,17.94
2023-09-20T07:54:55.630Z,17.96
2023-09-20T07:55:56.013Z,17.96
2023-09-20T07:56:55.475Z,17.98
2023-09-20T07:57:55.453Z,18.01
2023-09-20T07:58:56.387Z,18.04
2023-09-20T07:59:56.284Z,18.05
2023-09-20T08:00:55.401Z,18.07
2023-09-20T08:01:55.539Z,18.09
2023-09-20T08:02:55.868Z,18.10
2023-09-20T08:03:56.189Z,18.11
2023-09-20T08:04:55.336Z,18.13
2023-09-20T08:05:55.471Z,18.13
2023-09-20T08:06:55.324Z,18.16
2023-09-20T08:07:55.301Z,18.19
2023-09-20T08:08:55.369Z,18.21
2023-09-20T08:09:55.308Z,18.23
2023-09-20T08:11:10.956Z,18.21
2023-09-20T08:11:56.309Z,18.21
2023-09-20T08:12:55.281Z,18.25
2023-09-20T08:13:55.222Z,18.28
2023-09-20T08:14:55.218Z,18.29
2023-09-20T08:15:55.208Z,18.32
2023-09-20T08:17:55.302Z,18.35
2023-09-20T08:18:55.282Z,18.38
2023-09-20T08:19:55.146Z,18.38
2023-09-20T08:20:55.132Z,18.38
2023-09-20T08:21:55.153Z,18.41
2023-09-20T08:22:55.101Z,18.41
2023-09-20T08:23:55.093Z,18.44
2023-09-20T08:24:55.087Z,18.46
2023-09-20T08:25:55.062Z,18.44
2023-09-20T08:26:55.106Z,18.49
2023-09-20T08:27:55.035Z,18.49
2023-09-20T08:28:55.032Z,18.53
2023-09-20T08:29:56.668Z,18.57
2023-09-20T08:30:55.112Z,18.57
2023-09-20T08:31:55.103Z,18.57
2023-09-20T08:32:55.315Z,18.59
2023-09-20T08:33:54.988Z,18.62
2023-09-20T08:34:55.939Z,18.62
2023-09-20T08:35:55.017Z,18.65
2023-09-20T08:36:54.916Z,18.65
2023-09-20T08:37:54.917Z,18.66
2023-09-20T08:38:54.969Z,18.66
2023-09-20T08:39:54.956Z,18.69
2023-09-20T08:40:55.106Z,18.72
2023-09-20T08:41:54.992Z,18.72
2023-09-20T08:42:55.169Z,18.72
2023-09-20T08:43:55.010Z,18.75
2023-09-20T08:44:56.042Z,18.78
2023-09-20T08:45:55.079Z,18.79
2023-09-20T08:46:54.840Z,18.83
2023-09-20T08:47:54.904Z,18.84
2023-09-20T08:48:54.887Z,18.87
2023-09-20T08:49:54.916Z,18.87
2023-09-20T08:50:55.070Z,18.89
2023-09-20T08:51:54.759Z,18.90
2023-09-20T08:52:54.723Z,18.93
2023-09-20T08:53:54.941Z,18.93
2023-09-20T08:54:54.745Z,18.94
2023-09-20T08:55:54.773Z,18.99
2023-09-20T08:56:54.838Z,19.02
2023-09-20T08:57:54.672Z,19.06
2023-09-20T08:58:54.754Z,19.10
2023-09-20T08:59:54.688Z,19.13
2023-09-20T09:00:54.636Z,19.13
2023-09-20T09:01:54.640Z,19.16
2023-09-20T09:02:55.027Z,19.20
2023-09-20T09:03:54.659Z,19.23
2023-09-20T09:04:54.567Z,19.23
2023-09-20T09:05:54.643Z,19.23
2023-09-20T09:06:54.587Z,19.25
2023-09-20T09:07:54.500Z,19.27
2023-09-20T09:08:54.624Z,19.31
2023-09-20T09:09:54.526Z,19.32
2023-09-20T09:10:54.501Z,19.32
2023-09-20T09:11:54.453Z,19.34
2023-09-20T09:12:54.450Z,19.38
2023-09-20T09:13:54.465Z,19.38
2023-09-20T09:14:54.404Z,19.40
2023-09-20T09:15:54.494Z,19.40
2023-09-20T09:16:54.464Z,19.40
2023-09-20T09:17:54.472Z,19.43
2023-09-20T09:18:54.474Z,19.45
2023-09-20T09:19:54.406Z,19.45
2023-09-20T09:20:54.398Z,19.46
2023-09-20T09:21:54.311Z,19.49
2023-09-20T09:22:54.335Z,19.50
2023-09-20T09:23:54.336Z,19.50
2023-09-20T09:24:54.279Z,19.53
2023-09-20T09:25:54.305Z,19.58
2023-09-20T09:26:54.254Z,19.60
2023-09-20T09:27:54.254Z,19.60
2023-09-20T09:28:54.224Z,19.62
2023-09-20T09:29:54.303Z,19.64
2023-09-20T09:30:54.234Z,19.68
2023-09-20T09:31:54.241Z,19.68
2023-09-20T09:32:54.355Z,19.71
2023-09-20T09:33:54.254Z,19.75
2023-09-20T09:34:54.197Z,19.79
2023-09-20T09:35:54.192Z,19.82
2023-09-20T09:36:54.274Z,19.86
2023-09-20T09:37:54.115Z,19.89
2023-09-20T09:38:54.261Z,19.95
2023-09-20T09:39:54.116Z,20.02
2023-09-20T09:40:54.111Z,20.07
2023-09-20T09:41:54.077Z,20.13
2023-09-20T09:42:54.046Z,20.20
2023-09-20T09:43:54.063Z,20.27
2023-09-20T09:44:54.087Z,20.33
2023-09-20T09:45:54.024Z,20.37
2023-09-20T09:46:54.024Z,20.40
2023-09-20T09:47:54.033Z,20.50
2023-09-20T09:48:54.045Z,20.53
2023-09-20T09:49:53.958Z,20.57
2023-09-20T09:50:53.992Z,20.60
2023-09-20T09:51:53.956Z,20.63
2023-09-20T09:52:53.919Z,20.69
2023-09-20T09:53:53.975Z,20.71
2023-09-20T09:54:53.978Z,20.72
2023-09-20T09:55:53.897Z,20.72
2023-09-20T09:56:53.878Z,20.78
2023-09-20T09:57:53.847Z,20.82
2023-09-20T09:58:53.845Z,20.88
2023-09-20T09:59:53.838Z,20.94
2023-09-20T10:00:53.811Z,20.96
2023-09-20T10:01:53.833Z,21.01
2023-09-20T10:02:53.940Z,21.05
2023-09-20T10:03:53.983Z,21.12
2023-09-20T10:04:53.783Z,21.11
2023-09-20T10:05:53.823Z,21.12
2023-09-20T10:06:53.801Z,21.13
2023-09-20T10:07:53.737Z,21.21
2023-09-20T10:08:53.773Z,21.24
2023-09-20T10:09:53.730Z,21.24
2023-09-20T10:10:53.672Z,21.21
2023-09-20T10:11:53.705Z,21.21
2023-09-20T10:12:53.671Z,21.26
2023-09-20T10:13:53.645Z,21.26
2023-09-20T10:14:53.703Z,21.22
2023-09-20T10:15:53.638Z,21.22
2023-09-20T10:16:53.643Z,21.22
2023-09-20T10:17:53.785Z,21.19
2023-09-20T10:18:56.913Z,21.13
2023-09-20T10:19:54.568Z,21.15
2023-09-20T10:20:53.605Z,21.15
2023-09-20T10:21:53.557Z,21.12
2023-09-20T10:22:53.605Z,21.15
2023-09-20T10:23:53.521Z,21.16
2023-09-20T10:24:53.558Z,21.19
2023-09-20T10:25:53.486Z,21.19
2023-09-20T10:26:53.521Z,21.21
2023-09-20T10:27:53.481Z,21.21
2023-09-20T10:28:53.442Z,21.19
2023-09-20T10:29:53.496Z,21.15
2023-09-20T10:30:53.455Z,21.16
2023-09-20T10:31:53.409Z,21.19
2023-09-20T10:32:53.547Z,21.19
2023-09-20T10:33:53.632Z,21.22
2023-09-20T10:34:53.361Z,21.28
2023-09-20T10:35:53.393Z,21.30
2023-09-20T10:36:53.346Z,21.34
2023-09-20T10:37:53.415Z,21.37
2023-09-20T10:38:53.351Z,21.40
2023-09-20T10:39:53.305Z,21.42
2023-09-20T10:40:53.322Z,21.42
2023-09-20T10:41:53.319Z,21.42
2023-09-20T10:42:53.292Z,21.43
2023-09-20T10:43:53.239Z,21.45
2023-09-20T10:44:53.316Z,21.48
2023-09-20T10:45:53.249Z,21.52
2023-09-20T10:46:53.240Z,21.51
2023-09-20T10:47:53.276Z,21.53
2023-09-20T10:48:53.220Z,21.52
2023-09-20T10:49:53.219Z,21.48
2023-09-20T10:50:53.188Z,21.43
2023-09-20T10:51:53.160Z,21.40
2023-09-20T10:52:53.119Z,21.36
2023-09-20T10:53:53.221Z,21.36
2023-09-20T10:54:53.140Z,21.34
2023-09-20T10:55:53.080Z,21.34
2023-09-20T10:56:53.171Z,21.36
2023-09-20T10:57:53.086Z,21.40
2023-09-20T10:58:53.103Z,21.46
2023-09-20T10:59:53.139Z,21.53
2023-09-20T11:00:53.072Z,21.64
2023-09-20T11:01:53.021Z,21.68
2023-09-20T11:02:53.125Z,21.71
2023-09-20T11:03:52.990Z,21.74
2023-09-20T11:04:53.029Z,21.77
2023-09-20T11:05:53.023Z,21.82
2023-09-20T11:06:52.963Z,21.82
2023-09-20T11:07:52.987Z,21.85
2023-09-20T11:08:52.953Z,21.90
2023-09-20T11:09:53.005Z,21.94
2023-09-20T11:10:52.942Z,21.93
2023-09-20T11:11:52.954Z,21.93
2023-09-20T11:12:52.871Z,21.94
2023-09-20T11:13:52.886Z,21.94
2023-09-20T11:14:52.945Z,21.99
2023-09-20T11:15:52.852Z,22.02
2023-09-20T11:16:52.911Z,22.02
2023-09-20T11:17:52.942Z,22.01
2023-09-20T11:18:52.794Z,21.98
2023-09-20T11:19:52.805Z,21.94
2023-09-20T11:20:52.851Z,21.89
2023-09-20T11:21:54.473Z,21.89
2023-09-20T11:22:53.005Z,21.85
2023-09-20T11:23:52.822Z,21.83
2023-09-20T11:24:52.743Z,21.82
2023-09-20T11:25:52.698Z,21.81
2023-09-20T11:26:52.735Z,21.79
2023-09-20T11:27:52.734Z,21.81
2023-09-20T11:28:52.698Z,21.79
2023-09-20T11:29:52.839Z,21.81
2023-09-20T11:30:53.004Z,21.82
2023-09-20T11:31:52.620Z,21.79
2023-09-20T11:32:52.726Z,21.77
2023-09-20T11:33:52.598Z,21.75
2023-09-20T11:34:52.612Z,21.79
2023-09-20T11:35:52.597Z,21.77
2023-09-20T11:36:52.553Z,21.81
2023-09-20T11:37:52.553Z,21.86
2023-09-20T11:38:52.640Z,21.93
2023-09-20T11:39:52.633Z,21.99
2023-09-20T11:40:52.498Z,22.05
2023-09-20T11:41:52.561Z,22.12
2023-09-20T11:42:52.501Z,22.17
2023-09-20T11:43:52.464Z,22.21
2023-09-20T11:44:52.583Z,22.23
2023-09-20T11:46:00.531Z,22.29
2023-09-20T11:46:53.567Z,22.30
2023-09-20T11:47:52.535Z,22.30
2023-09-20T11:48:52.404Z,22.26
2023-09-20T11:49:52.372Z,22.23
2023-09-20T11:50:52.452Z,22.21
2023-09-20T11:51:52.360Z,22.24
2023-09-20T11:52:52.417Z,22.26
2023-09-20T11:53:52.431Z,22.27
2023-09-20T11:54:52.385Z,22.30
2023-09-20T11:55:52.335Z,22.35
2023-09-20T11:56:52.372Z,22.38
2023-09-20T11:57:52.275Z,22.38
2023-09-20T11:58:52.290Z,22.41
2023-09-20T11:59:52.275Z,22.44
2023-09-20T12:00:52.315Z,22.45
2023-09-20T12:01:52.230Z,22.49
2023-09-20T12:02:52.362Z,22.52
2023-09-20T12:03:52.352Z,22.57
2023-09-20T12:04:52.219Z,22.59
2023-09-20T12:05:52.294Z,22.61
2023-09-20T12:06:52.278Z,22.63
2023-09-20T12:07:52.196Z,22.66
2023-09-20T12:08:52.265Z,22.67
2023-09-20T12:09:52.156Z,22.69
2023-09-20T12:10:52.140Z,22.64
2023-09-20T12:11:52.166Z,22.61
2023-09-20T12:12:52.081Z,22.54
2023-09-20T12:13:52.093Z,22.54
2023-09-20T12:14:52.143Z,22.54
2023-09-20T12:15:52.072Z,22.51
2023-09-20T12:16:52.065Z,22.44
2023-09-20T12:17:52.065Z,22.42
2023-09-20T12:18:52.127Z,22.41
2023-09-20T12:19:52.009Z,22.41
2023-09-20T12:20:52.016Z,22.39
2023-09-20T12:21:51.964Z,22.45
2023-09-20T12:22:51.971Z,22.46
2023-09-20T12:23:52.022Z,22.48
2023-09-20T12:24:51.925Z,22.49
2023-09-20T12:25:51.904Z,22.52
2023-09-20T12:26:51.966Z,22.57
2023-09-20T12:27:52.045Z,22.57
2023-09-20T12:28:51.902Z,22.52
2023-09-20T12:29:51.955Z,22.48
2023-09-20T12:30:51.938Z,22.45
2023-09-20T12:31:51.837Z,22.42
2023-09-20T12:32:51.902Z,22.41
2023-09-20T12:33:51.901Z,22.39
2023-09-20T12:34:51.830Z,22.39
2023-09-20T12:35:51.829Z,22.36
2023-09-20T12:36:51.864Z,22.36
2023-09-20T12:37:51.818Z,22.36
2023-09-20T12:38:51.793Z,22.41
2023-09-20T12:39:51.792Z,22.44
2023-09-20T12:40:51.719Z,22.46
2023-09-20T12:41:51.713Z,22.46
2023-09-20T12:42:51.772Z,22.49
2023-09-20T12:44:00.842Z,22.46
2023-09-20T12:44:51.854Z,22.51
2023-09-20T12:45:51.823Z,22.49
2023-09-20T12:46:51.740Z,22.49
2023-09-20T12:47:51.749Z,22.48
2023-09-20T12:48:51.673Z,22.49
2023-09-20T12:49:51.613Z,22.49
2023-09-20T12:50:51.645Z,22.52
2023-09-20T12:51:51.626Z,22.56
2023-09-20T12:52:51.565Z,22.56